sensor_id;sensor_type;location;lat;lon;timestamp;P1;durP1;ratioP1;P2;durP2;ratioP2
49193;SDS011;35029;50.804;12.866;2023-09-18T00:02:22;6.25;;;3.53;;
49193;SDS011;35029;50.804;12.866;2023-09-18T00:04:47;4.97;;;3.50;;
49193;SDS011;35029;50.804;12.866;2023-09-18T00:07:13;3.97;;;3.58;;
49193;SDS011;35029;50.804;12.866;2023-09-18T00:09:39;4.70;;;3.47;;
49193;SDS011;35029;50.804;12.866;2023-09-18T00:12:05;3.30;;;3.00;;
49193;SDS011;35029;50.804;12.866;2023-09-18T00:14:31;5.18;;;3.60;;
49193;SDS011;35029;50.804;12.866;2023-09-18T00:16:57;4.50;;;3.30;;
49193;SDS011;35029;50.804;12.866;2023-09-18T00:19:23;4.28;;;3.40;;
49193;SDS011;35029;50.804;12.866;2023-09-18T00:21:50;3.53;;;3.22;;
49193;SDS011;35029;50.804;12.866;2023-09-18T00:24:17;3.45;;;3.15;;
49193;SDS011;35029;50.804;12.866;2023-09-18T00:26:43;6.07;;;3.60;;
49193;SDS011;35029;50.804;12.866;2023-09-18T00:29:08;3.38;;;3.08;;
49193;SDS011;35029;50.804;12.866;2023-09-18T00:31:34;3.70;;;2.97;;
49193;SDS011;35029;50.804;12.866;2023-09-18T00:34:00;4.30;;;3.33;;
49193;SDS011;35029;50.804;12.866;2023-09-18T00:36:26;4.47;;;3.10;;
49193;SDS011;35029;50.804;12.866;2023-09-18T00:38:52;5.47;;;3.65;;
49193;SDS011;35029;50.804;12.866;2023-09-18T00:41:18;3.58;;;3.22;;
49193;SDS011;35029;50.804;12.866;2023-09-18T00:43:43;4.43;;;3.00;;
49193;SDS011;35029;50.804;12.866;2023-09-18T00:46:09;3.60;;;3.08;;
49193;SDS011;35029;50.804;12.866;2023-09-18T00:48:34;3.42;;;3.13;;
49193;SDS011;35029;50.804;12.866;2023-09-18T00:51:00;3.45;;;3.15;;
49193;SDS011;35029;50.804;12.866;2023-09-18T00:53:26;4.32;;;3.17;;
49193;SDS011;35029;50.804;12.866;2023-09-18T00:55:53;3.50;;;3.20;;
49193;SDS011;35029;50.804;12.866;2023-09-18T00:58:20;4.72;;;3.20;;
49193;SDS011;35029;50.804;12.866;2023-09-18T01:00:46;6.13;;;3.17;;
49193;SDS011;35029;50.804;12.866;2023-09-18T01:03:15;4.20;;;3.00;;
49193;SDS011;35029;50.804;12.866;2023-09-18T01:05:43;4.25;;;3.30;;
49193;SDS011;35029;50.804;12.866;2023-09-18T01:08:10;5.35;;;3.50;;
49193;SDS011;35029;50.804;12.866;2023-09-18T01:10:45;4.05;;;3.28;;
49193;SDS011;35029;50.804;12.866;2023-09-18T01:13:28;3.88;;;2.88;;
49193;SDS011;35029;50.804;12.866;2023-09-18T01:16:08;4.28;;;2.90;;
49193;SDS011;35029;50.804;12.866;2023-09-18T01:18:49;7.85;;;3.40;;
49193;SDS011;35029;50.804;12.866;2023-09-18T01:21:16;2.97;;;2.67;;
49193;SDS011;35029;50.804;12.866;2023-09-18T01:23:42;3.03;;;2.72;;
49193;SDS011;35029;50.804;12.866;2023-09-18T01:26:08;4.07;;;2.75;;
49193;SDS011;35029;50.804;12.866;2023-09-18T01:28:34;5.47;;;3.17;;
49193;SDS011;35029;50.804;12.866;2023-09-18T01:31:01;3.33;;;3.00;;
49193;SDS011;35029;50.804;12.866;2023-09-18T01:33:26;5.75;;;3.00;;
49193;SDS011;35029;50.804;12.866;2023-09-18T01:35:55;3.10;;;2.90;;
49193;SDS011;35029;50.804;12.866;2023-09-18T01:38:22;3.00;;;2.70;;
49193;SDS011;35029;50.804;12.866;2023-09-18T01:40:50;3.60;;;3.30;;
49193;SDS011;35029;50.804;12.866;2023-09-18T01:43:19;3.45;;;3.13;;
49193;SDS011;35029;50.804;12.866;2023-09-18T01:45:45;3.72;;;3.33;;
49193;SDS011;35029;50.804;12.866;2023-09-18T01:48:13;3.42;;;3.13;;
49193;SDS011;35029;50.804;12.866;2023-09-18T01:50:39;3.63;;;3.30;;
49193;SDS011;35029;50.804;12.866;2023-09-18T01:53:05;3.45;;;3.08;;
49193;SDS011;35029;50.804;12.866;2023-09-18T01:55:31;3.50;;;3.20;;
49193;SDS011;35029;50.804;12.866;2023-09-18T01:57:58;3.13;;;2.88;;
49193;SDS011;35029;50.804;12.866;2023-09-18T02:00:24;5.03;;;3.20;;
49193;SDS011;35029;50.804;12.866;2023-09-18T02:02:49;4.05;;;3.28;;
49193;SDS011;35029;50.804;12.866;2023-09-18T02:05:15;3.92;;;3.15;;
49193;SDS011;35029;50.804;12.866;2023-09-18T02:07:40;5.00;;;3.50;;
49193;SDS011;35029;50.804;12.866;2023-09-18T02:10:06;5.68;;;3.30;;
49193;SDS011;35029;50.804;12.866;2023-09-18T02:12:33;4.18;;;3.78;;
49193;SDS011;35029;50.804;12.866;2023-09-18T02:15:01;5.38;;;2.95;;
49193;SDS011;35029;50.804;12.866;2023-09-18T02:17:31;4.03;;;3.63;;
49193;SDS011;35029;50.804;12.866;2023-09-18T02:19:57;4.50;;;4.10;;
49193;SDS011;35029;50.804;12.866;2023-09-18T02:22:22;3.72;;;3.33;;
49193;SDS011;35029;50.804;12.866;2023-09-18T02:24:48;3.83;;;3.13;;
49193;SDS011;35029;50.804;12.866;2023-09-18T02:27:14;3.83;;;3.33;;
49193;SDS011;35029;50.804;12.866;2023-09-18T02:29:39;4.00;;;3.60;;
49193;SDS011;35029;50.804;12.866;2023-09-18T02:32:05;3.38;;;3.08;;
49193;SDS011;35029;50.804;12.866;2023-09-18T02:34:31;4.13;;;3.65;;
49193;SDS011;35029;50.804;12.866;2023-09-18T02:36:57;3.97;;;3.58;;
49193;SDS011;35029;50.804;12.866;2023-09-18T02:39:22;3.50;;;3.20;;
49193;SDS011;35029;50.804;12.866;2023-09-18T02:41:49;4.00;;;3.28;;
49193;SDS011;35029;50.804;12.866;2023-09-18T02:44:16;3.85;;;3.45;;
49193;SDS011;35029;50.804;12.866;2023-09-18T02:46:42;3.90;;;3.15;;
49193;SDS011;35029;50.804;12.866;2023-09-18T02:49:12;3.30;;;3.00;;
49193;SDS011;35029;50.804;12.866;2023-09-18T02:51:38;4.68;;;3.20;;
49193;SDS011;35029;50.804;12.866;2023-09-18T02:54:03;4.22;;;3.05;;
49193;SDS011;35029;50.804;12.866;2023-09-18T02:56:29;5.05;;;3.47;;
49193;SDS011;35029;50.804;12.866;2023-09-18T02:58:55;3.55;;;3.25;;
49193;SDS011;35029;50.804;12.866;2023-09-18T03:01:20;4.13;;;3.53;;
49193;SDS011;35029;50.804;12.866;2023-09-18T03:03:46;3.78;;;3.35;;
49193;SDS011;35029;50.804;12.866;2023-09-18T03:06:11;4.32;;;3.15;;
49193;SDS011;35029;50.804;12.866;2023-09-18T03:08:38;6.03;;;3.55;;
49193;SDS011;35029;50.804;12.866;2023-09-18T03:11:10;3.47;;;3.17;;
49193;SDS011;35029;50.804;12.866;2023-09-18T03:13:42;4.40;;;3.92;;
49193;SDS011;35029;50.804;12.866;2023-09-18T03:16:10;3.70;;;3.40;;
49193;SDS011;35029;50.804;12.866;2023-09-18T03:18:35;3.50;;;3.17;;
49193;SDS011;35029;50.804;12.866;2023-09-18T03:21:02;3.53;;;3.22;;
49193;SDS011;35029;50.804;12.866;2023-09-18T03:23:27;3.53;;;3.22;;
49193;SDS011;35029;50.804;12.866;2023-09-18T03:25:54;4.10;;;3.22;;
49193;SDS011;35029;50.804;12.866;2023-09-18T03:28:20;4.45;;;3.22;;
49193;SDS011;35029;50.804;12.866;2023-09-18T03:30:46;3.40;;;3.10;;
49193;SDS011;35029;50.804;12.866;2023-09-18T03:33:11;4.43;;;3.72;;
49193;SDS011;35029;50.804;12.866;2023-09-18T03:35:47;4.57;;;3.70;;
49193;SDS011;35029;50.804;12.866;2023-09-18T03:38:15;3.42;;;3.13;;
49193;SDS011;35029;50.804;12.866;2023-09-18T03:40:41;3.47;;;3.17;;
49193;SDS011;35029;50.804;12.866;2023-09-18T03:43:09;3.70;;;3.40;;
49193;SDS011;35029;50.804;12.866;2023-09-18T03:45:35;4.18;;;3.78;;
49193;SDS011;35029;50.804;12.866;2023-09-18T03:48:01;3.60;;;3.30;;
49193;SDS011;35029;50.804;12.866;2023-09-18T03:50:26;4.05;;;3.65;;
49193;SDS011;35029;50.804;12.866;2023-09-18T03:52:52;3.97;;;3.63;;
49193;SDS011;35029;50.804;12.866;2023-09-18T03:55:18;3.85;;;3.55;;
49193;SDS011;35029;50.804;12.866;2023-09-18T03:57:43;4.00;;;3.70;;
49193;SDS011;35029;50.804;12.866;2023-09-18T04:00:11;4.03;;;3.63;;
49193;SDS011;35029;50.804;12.866;2023-09-18T04:02:39;3.92;;;3.53;;
49193;SDS011;35029;50.804;12.866;2023-09-18T04:05:05;3.72;;;3.30;;
49193;SDS011;35029;50.804;12.866;2023-09-18T04:07:32;3.97;;;3.67;;
49193;SDS011;35029;50.804;12.866;2023-09-18T04:09:59;4.38;;;3.97;;
49193;SDS011;35029;50.804;12.866;2023-09-18T04:12:25;4.03;;;3.63;;
49193;SDS011;35029;50.804;12.866;2023-09-18T04:14:50;3.88;;;3.50;;
49193;SDS011;35029;50.804;12.866;2023-09-18T04:17:16;9.50;;;4.38;;
49193;SDS011;35029;50.804;12.866;2023-09-18T04:19:43;4.70;;;4.15;;
49193;SDS011;35029;50.804;12.866;2023-09-18T04:22:09;4.25;;;3.85;;
49193;SDS011;35029;50.804;12.866;2023-09-18T04:24:34;4.30;;;3.83;;
49193;SDS011;35029;50.804;12.866;2023-09-18T04:27:01;4.45;;;4.05;;
49193;SDS011;35029;50.804;12.866;2023-09-18T04:29:26;3.90;;;3.60;;
49193;SDS011;35029;50.804;12.866;2023-09-18T04:31:52;4.07;;;3.75;;
49193;SDS011;35029;50.804;12.866;2023-09-18T04:34:19;5.00;;;3.92;;
49193;SDS011;35029;50.804;12.866;2023-09-18T04:36:45;4.22;;;3.65;;
49193;SDS011;35029;50.804;12.866;2023-09-18T04:39:13;4.05;;;3.72;;
49193;SDS011;35029;50.804;12.866;2023-09-18T04:41:39;3.90;;;3.58;;
49193;SDS011;35029;50.804;12.866;2023-09-18T04:44:05;4.00;;;3.60;;
49193;SDS011;35029;50.804;12.866;2023-09-18T04:46:33;4.15;;;3.75;;
49193;SDS011;35029;50.804;12.866;2023-09-18T04:49:00;4.70;;;4.30;;
49193;SDS011;35029;50.804;12.866;2023-09-18T04:51:29;4.68;;;3.78;;
49193;SDS011;35029;50.804;12.866;2023-09-18T04:53:57;4.43;;;3.80;;
49193;SDS011;35029;50.804;12.866;2023-09-18T04:56:23;4.32;;;3.80;;
49193;SDS011;35029;50.804;12.866;2023-09-18T04:58:51;4.45;;;4.05;;
49193;SDS011;35029;50.804;12.866;2023-09-18T05:01:16;4.93;;;4.20;;
49193;SDS011;35029;50.804;12.866;2023-09-18T05:03:42;4.63;;;4.03;;
49193;SDS011;35029;50.804;12.866;2023-09-18T05:06:08;4.25;;;3.85;;
49193;SDS011;35029;50.804;12.866;2023-09-18T05:08:34;5.05;;;4.25;;
49193;SDS011;35029;50.804;12.866;2023-09-18T05:10:59;4.68;;;4.20;;
49193;SDS011;35029;50.804;12.866;2023-09-18T05:13:25;3.83;;;3.53;;
49193;SDS011;35029;50.804;12.866;2023-09-18T05:15:51;3.85;;;3.50;;
49193;SDS011;35029;50.804;12.866;2023-09-18T05:18:17;5.88;;;4.05;;
49193;SDS011;35029;50.804;12.866;2023-09-18T05:20:42;4.80;;;3.80;;
49193;SDS011;35029;50.804;12.866;2023-09-18T05:23:08;5.47;;;4.22;;
49193;SDS011;35029;50.804;12.866;2023-09-18T05:25:34;4.40;;;4.05;;
49193;SDS011;35029;50.804;12.866;2023-09-18T05:28:03;4.93;;;4.28;;
49193;SDS011;35029;50.804;12.866;2023-09-18T05:30:31;4.90;;;4.40;;
49193;SDS011;35029;50.804;12.866;2023-09-18T05:32:59;4.22;;;3.83;;
49193;SDS011;35029;50.804;12.866;2023-09-18T05:35:48;4.32;;;3.92;;
49193;SDS011;35029;50.804;12.866;2023-09-18T05:38:19;4.88;;;4.15;;
49193;SDS011;35029;50.804;12.866;2023-09-18T05:40:44;4.50;;;4.10;;
49193;SDS011;35029;50.804;12.866;2023-09-18T05:43:10;4.50;;;3.78;;
49193;SDS011;35029;50.804;12.866;2023-09-18T05:45:37;6.63;;;3.80;;
49193;SDS011;35029;50.804;12.866;2023-09-18T05:48:03;5.10;;;3.90;;
49193;SDS011;35029;50.804;12.866;2023-09-18T05:50:30;4.05;;;3.72;;
49193;SDS011;35029;50.804;12.866;2023-09-18T05:52:57;3.80;;;3.50;;
49193;SDS011;35029;50.804;12.866;2023-09-18T05:55:28;7.07;;;4.47;;
49193;SDS011;35029;50.804;12.866;2023-09-18T05:57:58;4.13;;;3.63;;
49193;SDS011;35029;50.804;12.866;2023-09-18T06:00:25;7.88;;;4.72;;
49193;SDS011;35029;50.804;12.866;2023-09-18T06:02:51;4.43;;;4.03;;
49193;SDS011;35029;50.804;12.866;2023-09-18T06:05:17;5.72;;;4.57;;
49193;SDS011;35029;50.804;12.866;2023-09-18T06:07:46;5.13;;;4.63;;
49193;SDS011;35029;50.804;12.866;2023-09-18T06:10:15;5.60;;;4.13;;
49193;SDS011;35029;50.804;12.866;2023-09-18T06:12:43;6.30;;;4.60;;
49193;SDS011;35029;50.804;12.866;2023-09-18T06:15:10;6.25;;;4.95;;
49193;SDS011;35029;50.804;12.866;2023-09-18T06:17:40;6.80;;;4.53;;
49193;SDS011;35029;50.804;12.866;2023-09-18T06:20:10;4.53;;;4.10;;
49193;SDS011;35029;50.804;12.866;2023-09-18T06:22:38;6.38;;;4.25;;
49193;SDS011;35029;50.804;12.866;2023-09-18T06:25:06;5.45;;;4.85;;
49193;SDS011;35029;50.804;12.866;2023-09-18T06:27:35;5.78;;;5.10;;
49193;SDS011;35029;50.804;12.866;2023-09-18T06:30:02;5.53;;;4.35;;
49193;SDS011;35029;50.804;12.866;2023-09-18T06:32:29;3.95;;;3.42;;
49193;SDS011;35029;50.804;12.866;2023-09-18T06:34:54;10.00;;;3.85;;
49193;SDS011;35029;50.804;12.866;2023-09-18T06:37:22;4.30;;;3.30;;
49193;SDS011;35029;50.804;12.866;2023-09-18T06:39:48;4.07;;;2.78;;
49193;SDS011;35029;50.804;12.866;2023-09-18T06:42:14;3.45;;;3.15;;
49193;SDS011;35029;50.804;12.866;2023-09-18T06:44:40;4.82;;;3.35;;
49193;SDS011;35029;50.804;12.866;2023-09-18T06:47:06;7.60;;;3.03;;
49193;SDS011;35029;50.804;12.866;2023-09-18T06:49:32;5.70;;;3.38;;
49193;SDS011;35029;50.804;12.866;2023-09-18T06:51:58;5.13;;;3.58;;
49193;SDS011;35029;50.804;12.866;2023-09-18T06:54:23;3.92;;;3.45;;
49193;SDS011;35029;50.804;12.866;2023-09-18T06:56:49;5.32;;;3.95;;
49193;SDS011;35029;50.804;12.866;2023-09-18T06:59:15;3.95;;;3.30;;
49193;SDS011;35029;50.804;12.866;2023-09-18T07:01:41;6.40;;;3.20;;
49193;SDS011;35029;50.804;12.866;2023-09-18T07:04:07;4.68;;;3.10;;
49193;SDS011;35029;50.804;12.866;2023-09-18T07:06:34;4.30;;;3.35;;
49193;SDS011;35029;50.804;12.866;2023-09-18T07:08:59;3.65;;;3.35;;
49193;SDS011;35029;50.804;12.866;2023-09-18T07:11:25;3.63;;;2.97;;
49193;SDS011;35029;50.804;12.866;2023-09-18T07:13:50;3.53;;;3.22;;
49193;SDS011;35029;50.804;12.866;2023-09-18T07:16:16;4.45;;;3.10;;
49193;SDS011;35029;50.804;12.866;2023-09-18T07:18:42;3.17;;;2.90;;
49193;SDS011;35029;50.804;12.866;2023-09-18T07:21:08;3.47;;;2.75;;
49193;SDS011;35029;50.804;12.866;2023-09-18T07:23:34;3.38;;;3.08;;
49193;SDS011;35029;50.804;12.866;2023-09-18T07:26:02;3.45;;;3.15;;
49193;SDS011;35029;50.804;12.866;2023-09-18T07:28:28;4.18;;;2.90;;
49193;SDS011;35029;50.804;12.866;2023-09-18T07:30:53;2.92;;;2.72;;
49193;SDS011;35029;50.804;12.866;2023-09-18T07:33:20;3.33;;;3.03;;
49193;SDS011;35029;50.804;12.866;2023-09-18T07:35:48;3.42;;;3.13;;
49193;SDS011;35029;50.804;12.866;2023-09-18T07:38:17;3.92;;;2.72;;
49193;SDS011;35029;50.804;12.866;2023-09-18T07:40:45;4.32;;;3.00;;
49193;SDS011;35029;50.804;12.866;2023-09-18T07:43:12;3.15;;;2.85;;
49193;SDS011;35029;50.804;12.866;2023-09-18T07:45:39;4.15;;;2.72;;
49193;SDS011;35029;50.804;12.866;2023-09-18T07:48:05;3.17;;;2.80;;
49193;SDS011;35029;50.804;12.866;2023-09-18T07:50:32;3.15;;;2.88;;
49193;SDS011;35029;50.804;12.866;2023-09-18T07:52:59;3.70;;;2.53;;
49193;SDS011;35029;50.804;12.866;2023-09-18T07:55:25;3.53;;;2.60;;
49193;SDS011;35029;50.804;12.866;2023-09-18T07:57:51;3.20;;;3.00;;
49193;SDS011;35029;50.804;12.866;2023-09-18T08:00:17;5.90;;;3.15;;
49193;SDS011;35029;50.804;12.866;2023-09-18T08:02:43;3.60;;;3.30;;
49193;SDS011;35029;50.804;12.866;2023-09-18T08:05:09;3.28;;;2.97;;
49193;SDS011;35029;50.804;12.866;2023-09-18T08:07:36;4.68;;;3.00;;
49193;SDS011;35029;50.804;12.866;2023-09-18T08:10:02;3.30;;;3.10;;
49193;SDS011;35029;50.804;12.866;2023-09-18T08:12:31;3.45;;;2.83;;
49193;SDS011;35029;50.804;12.866;2023-09-18T08:14:58;2.85;;;2.60;;
49193;SDS011;35029;50.804;12.866;2023-09-18T08:17:24;6.95;;;3.20;;
49193;SDS011;35029;50.804;12.866;2023-09-18T08:19:50;5.10;;;2.80;;
49193;SDS011;35029;50.804;12.866;2023-09-18T08:22:20;4.05;;;2.55;;
49193;SDS011;35029;50.804;12.866;2023-09-18T08:24:47;3.25;;;2.95;;
49193;SDS011;35029;50.804;12.866;2023-09-18T08:27:16;3.70;;;2.45;;
49193;SDS011;35029;50.804;12.866;2023-09-18T08:29:42;4.20;;;2.83;;
49193;SDS011;35029;50.804;12.866;2023-09-18T08:32:08;3.53;;;2.92;;
49193;SDS011;35029;50.804;12.866;2023-09-18T08:34:34;2.70;;;2.50;;
49193;SDS011;35029;50.804;12.866;2023-09-18T08:37:00;3.05;;;2.33;;
49193;SDS011;35029;50.804;12.866;2023-09-18T08:39:27;2.45;;;2.25;;
49193;SDS011;35029;50.804;12.866;2023-09-18T08:41:55;10.60;;;5.45;;
49193;SDS011;35029;50.804;12.866;2023-09-18T08:44:26;10.77;;;5.38;;
49193;SDS011;35029;50.804;12.866;2023-09-18T08:46:53;8.43;;;4.68;;
49193;SDS011;35029;50.804;12.866;2023-09-18T08:49:21;3.03;;;2.40;;
49193;SDS011;35029;50.804;12.866;2023-09-18T08:51:49;3.83;;;2.90;;
49193;SDS011;35029;50.804;12.866;2023-09-18T08:54:15;3.17;;;2.88;;
49193;SDS011;35029;50.804;12.866;2023-09-18T08:56:41;3.28;;;2.63;;
49193;SDS011;35029;50.804;12.866;2023-09-18T08:59:07;4.22;;;2.47;;
49193;SDS011;35029;50.804;12.866;2023-09-18T09:01:32;4.03;;;2.67;;
49193;SDS011;35029;50.804;12.866;2023-09-18T09:03:58;5.07;;;2.92;;
49193;SDS011;35029;50.804;12.866;2023-09-18T09:06:25;2.63;;;2.40;;
49193;SDS011;35029;50.804;12.866;2023-09-18T09:08:51;5.88;;;2.55;;
49193;SDS011;35029;50.804;12.866;2023-09-18T09:11:17;2.30;;;2.10;;
49193;SDS011;35029;50.804;12.866;2023-09-18T09:13:45;3.28;;;2.08;;
49193;SDS011;35029;50.804;12.866;2023-09-18T09:16:11;2.15;;;2.00;;
49193;SDS011;35029;50.804;12.866;2023-09-18T09:18:46;2.63;;;2.05;;
49193;SDS011;35029;50.804;12.866;2023-09-18T09:21:14;6.18;;;2.58;;
49193;SDS011;35029;50.804;12.866;2023-09-18T09:23:47;3.15;;;2.22;;
49193;SDS011;35029;50.804;12.866;2023-09-18T09:26:21;3.25;;;2.17;;
49193;SDS011;35029;50.804;12.866;2023-09-18T09:28:47;4.55;;;2.55;;
49193;SDS011;35029;50.804;12.866;2023-09-18T09:31:30;2.30;;;1.95;;
49193;SDS011;35029;50.804;12.866;2023-09-18T09:33:56;2.97;;;2.30;;
49193;SDS011;35029;50.804;12.866;2023-09-18T09:36:23;5.15;;;2.50;;
49193;SDS011;35029;50.804;12.866;2023-09-18T09:38:59;4.57;;;2.20;;
49193;SDS011;35029;50.804;12.866;2023-09-18T09:41:25;2.83;;;2.22;;
49193;SDS011;35029;50.804;12.866;2023-09-18T09:43:52;2.92;;;2.30;;
49193;SDS011;35029;50.804;12.866;2023-09-18T09:46:21;3.30;;;2.00;;
49193;SDS011;35029;50.804;12.866;2023-09-18T09:49:00;4.60;;;2.20;;
49193;SDS011;35029;50.804;12.866;2023-09-18T09:51:27;4.18;;;2.28;;
49193;SDS011;35029;50.804;12.866;2023-09-18T09:53:53;3.97;;;2.30;;
49193;SDS011;35029;50.804;12.866;2023-09-18T09:56:19;5.35;;;2.78;;
49193;SDS011;35029;50.804;12.866;2023-09-18T09:59:02;2.72;;;2.25;;
49193;SDS011;35029;50.804;12.866;2023-09-18T10:01:36;6.43;;;2.47;;
49193;SDS011;35029;50.804;12.866;2023-09-18T10:04:05;3.05;;;2.55;;
49193;SDS011;35029;50.804;12.866;2023-09-18T10:06:35;2.70;;;2.45;;
49193;SDS011;35029;50.804;12.866;2023-09-18T10:09:02;4.05;;;2.83;;
49193;SDS011;35029;50.804;12.866;2023-09-18T10:11:31;3.70;;;2.35;;
49193;SDS011;35029;50.804;12.866;2023-09-18T10:14:07;3.45;;;2.60;;
49193;SDS011;35029;50.804;12.866;2023-09-18T10:16:37;5.55;;;2.47;;
49193;SDS011;35029;50.804;12.866;2023-09-18T10:19:09;2.33;;;2.13;;
49193;SDS011;35029;50.804;12.866;2023-09-18T10:26:59;5.22;;;2.55;;
49193;SDS011;35029;50.804;12.866;2023-09-18T10:29:29;3.28;;;2.53;;
49193;SDS011;35029;50.804;12.866;2023-09-18T10:31:58;4.53;;;2.90;;
49193;SDS011;35029;50.804;12.866;2023-09-18T10:34:25;2.45;;;2.25;;
49193;SDS011;35029;50.804;12.866;2023-09-18T10:36:51;2.60;;;2.40;;
49193;SDS011;35029;50.804;12.866;2023-09-18T10:39:18;2.80;;;2.50;;
49193;SDS011;35029;50.804;12.866;2023-09-18T10:41:48;6.18;;;2.50;;
49193;SDS011;35029;50.804;12.866;2023-09-18T10:44:16;4.57;;;2.50;;
49193;SDS011;35029;50.804;12.866;2023-09-18T10:46:46;7.03;;;2.97;;
49193;SDS011;35029;50.804;12.866;2023-09-18T10:49:13;5.28;;;2.90;;
49193;SDS011;35029;50.804;12.866;2023-09-18T10:51:40;7.15;;;2.92;;
49193;SDS011;35029;50.804;12.866;2023-09-18T10:54:11;8.40;;;3.22;;
49193;SDS011;35029;50.804;12.866;2023-09-18T10:56:41;8.88;;;2.90;;
49193;SDS011;35029;50.804;12.866;2023-09-18T10:59:07;10.18;;;3.53;;
49193;SDS011;35029;50.804;12.866;2023-09-18T11:01:36;4.65;;;2.55;;
49193;SDS011;35029;50.804;12.866;2023-09-18T11:04:05;6.35;;;2.63;;
49193;SDS011;35029;50.804;12.866;2023-09-18T11:09:19;12.52;;;3.40;;
49193;SDS011;35029;50.804;12.866;2023-09-18T11:12:05;10.88;;;3.10;;
49193;SDS011;35029;50.804;12.866;2023-09-18T11:17:06;5.70;;;3.28;;
49193;SDS011;35029;50.804;12.866;2023-09-18T11:20:01;9.10;;;3.55;;
49193;SDS011;35029;50.804;12.866;2023-09-18T11:22:38;6.78;;;3.70;;
49193;SDS011;35029;50.804;12.866;2023-09-18T11:28:00;14.05;;;3.53;;
49193;SDS011;35029;50.804;12.866;2023-09-18T11:30:27;9.68;;;3.33;;
49193;SDS011;35029;50.804;12.866;2023-09-18T11:32:54;10.88;;;3.50;;
49193;SDS011;35029;50.804;12.866;2023-09-18T11:35:20;6.03;;;2.53;;
49193;SDS011;35029;50.804;12.866;2023-09-18T11:37:46;7.00;;;2.47;;
49193;SDS011;35029;50.804;12.866;2023-09-18T11:40:31;5.22;;;2.70;;
49193;SDS011;35029;50.804;12.866;2023-09-18T11:43:22;11.15;;;3.30;;
49193;SDS011;35029;50.804;12.866;2023-09-18T11:46:00;10.10;;;3.25;;
49193;SDS011;35029;50.804;12.866;2023-09-18T11:48:30;6.77;;;3.00;;
49193;SDS011;35029;50.804;12.866;2023-09-18T11:50:59;6.57;;;3.05;;
49193;SDS011;35029;50.804;12.866;2023-09-18T11:53:29;6.15;;;2.90;;
49193;SDS011;35029;50.804;12.866;2023-09-18T11:56:02;10.48;;;3.30;;
49193;SDS011;35029;50.804;12.866;2023-09-18T11:58:28;10.38;;;3.13;;
49193;SDS011;35029;50.804;12.866;2023-09-18T12:00:54;7.65;;;2.92;;
49193;SDS011;35029;50.804;12.866;2023-09-18T12:03:24;4.18;;;2.50;;
49193;SDS011;35029;50.804;12.866;2023-09-18T12:06:00;7.00;;;2.85;;
49193;SDS011;35029;50.804;12.866;2023-09-18T12:08:30;10.82;;;3.10;;
49193;SDS011;35029;50.804;12.866;2023-09-18T12:10:57;6.15;;;2.60;;
49193;SDS011;35029;50.804;12.866;2023-09-18T12:13:24;9.02;;;2.90;;
49193;SDS011;35029;50.804;12.866;2023-09-18T12:15:56;6.25;;;2.60;;
49193;SDS011;35029;50.804;12.866;2023-09-18T12:18:31;8.57;;;2.67;;
49193;SDS011;35029;50.804;12.866;2023-09-18T12:21:05;4.20;;;2.58;;
49193;SDS011;35029;50.804;12.866;2023-09-18T12:23:41;8.43;;;2.70;;
49193;SDS011;35029;50.804;12.866;2023-09-18T12:26:10;8.07;;;2.33;;
49193;SDS011;35029;50.804;12.866;2023-09-18T12:28:38;4.43;;;2.30;;
49193;SDS011;35029;50.804;12.866;2023-09-18T12:31:05;6.80;;;2.63;;
49193;SDS011;35029;50.804;12.866;2023-09-18T12:33:38;9.57;;;3.20;;
49193;SDS011;35029;50.804;12.866;2023-09-18T12:36:04;7.53;;;2.78;;
49193;SDS011;35029;50.804;12.866;2023-09-18T12:38:31;6.43;;;3.00;;
49193;SDS011;35029;50.804;12.866;2023-09-18T12:40:58;6.38;;;2.70;;
49193;SDS011;35029;50.804;12.866;2023-09-18T12:43:38;4.63;;;2.95;;
49193;SDS011;35029;50.804;12.866;2023-09-18T12:46:08;9.18;;;3.08;;
49193;SDS011;35029;50.804;12.866;2023-09-18T12:48:37;5.30;;;3.10;;
49193;SDS011;35029;50.804;12.866;2023-09-18T12:51:04;4.78;;;2.92;;
49193;SDS011;35029;50.804;12.866;2023-09-18T12:53:31;6.78;;;2.58;;
49193;SDS011;35029;50.804;12.866;2023-09-18T12:56:18;9.68;;;3.20;;
49193;SDS011;35029;50.804;12.866;2023-09-18T12:58:43;7.03;;;2.30;;
49193;SDS011;35029;50.804;12.866;2023-09-18T13:01:10;6.50;;;2.33;;
49193;SDS011;35029;50.804;12.866;2023-09-18T13:03:43;7.43;;;2.70;;
49193;SDS011;35029;50.804;12.866;2023-09-18T13:06:17;6.47;;;2.65;;
49193;SDS011;35029;50.804;12.866;2023-09-18T13:08:43;8.50;;;2.33;;
49193;SDS011;35029;50.804;12.866;2023-09-18T13:11:09;13.77;;;2.95;;
49193;SDS011;35029;50.804;12.866;2023-09-18T13:13:41;15.10;;;2.75;;
49193;SDS011;35029;50.804;12.866;2023-09-18T13:16:09;9.15;;;2.70;;
49193;SDS011;35029;50.804;12.866;2023-09-18T13:18:35;6.20;;;2.60;;
49193;SDS011;35029;50.804;12.866;2023-09-18T13:21:08;6.32;;;2.95;;
49193;SDS011;35029;50.804;12.866;2023-09-18T13:23:35;7.05;;;2.63;;
49193;SDS011;35029;50.804;12.866;2023-09-18T13:26:02;7.47;;;2.53;;
49193;SDS011;35029;50.804;12.866;2023-09-18T13:28:29;8.25;;;2.05;;
49193;SDS011;35029;50.804;12.866;2023-09-18T13:30:58;4.43;;;1.80;;
49193;SDS011;35029;50.804;12.866;2023-09-18T13:33:24;5.07;;;2.20;;
49193;SDS011;35029;50.804;12.866;2023-09-18T13:35:51;4.07;;;2.17;;
49193;SDS011;35029;50.804;12.866;2023-09-18T13:38:18;4.28;;;2.20;;
49193;SDS011;35029;50.804;12.866;2023-09-18T13:40:45;8.75;;;2.33;;
49193;SDS011;35029;50.804;12.866;2023-09-18T13:43:12;4.05;;;2.00;;
49193;SDS011;35029;50.804;12.866;2023-09-18T13:45:44;16.77;;;2.28;;
49193;SDS011;35029;50.804;12.866;2023-09-18T13:48:09;9.57;;;2.08;;
49193;SDS011;35029;50.804;12.866;2023-09-18T13:50:36;8.60;;;2.33;;
49193;SDS011;35029;50.804;12.866;2023-09-18T13:53:03;9.80;;;2.03;;
49193;SDS011;35029;50.804;12.866;2023-09-18T13:55:41;11.38;;;2.42;;
49193;SDS011;35029;50.804;12.866;2023-09-18T13:58:06;6.03;;;1.95;;
49193;SDS011;35029;50.804;12.866;2023-09-18T14:00:32;5.60;;;1.90;;
49193;SDS011;35029;50.804;12.866;2023-09-18T14:02:58;7.18;;;2.05;;
49193;SDS011;35029;50.804;12.866;2023-09-18T14:05:24;6.70;;;2.03;;
49193;SDS011;35029;50.804;12.866;2023-09-18T14:07:51;4.65;;;2.10;;
49193;SDS011;35029;50.804;12.866;2023-09-18T14:10:22;4.20;;;1.95;;
49193;SDS011;35029;50.804;12.866;2023-09-18T14:12:48;6.32;;;2.05;;
49193;SDS011;35029;50.804;12.866;2023-09-18T14:15:16;3.67;;;2.88;;
49193;SDS011;35029;50.804;12.866;2023-09-18T14:17:41;4.32;;;2.50;;
49193;SDS011;35029;50.804;12.866;2023-09-18T14:20:07;9.82;;;2.10;;
49193;SDS011;35029;50.804;12.866;2023-09-18T14:22:33;3.90;;;1.70;;
49193;SDS011;35029;50.804;12.866;2023-09-18T14:24:59;10.45;;;2.17;;
49193;SDS011;35029;50.804;12.866;2023-09-18T14:27:25;3.40;;;1.83;;
49193;SDS011;35029;50.804;12.866;2023-09-18T14:29:50;4.30;;;2.13;;
49193;SDS011;35029;50.804;12.866;2023-09-18T14:32:16;3.17;;;1.70;;
49193;SDS011;35029;50.804;12.866;2023-09-18T14:34:41;6.38;;;2.17;;
49193;SDS011;35029;50.804;12.866;2023-09-18T14:37:07;4.90;;;1.90;;
49193;SDS011;35029;50.804;12.866;2023-09-18T14:39:34;6.57;;;2.08;;
49193;SDS011;35029;50.804;12.866;2023-09-18T14:41:59;3.17;;;2.00;;
49193;SDS011;35029;50.804;12.866;2023-09-18T14:44:26;5.72;;;2.33;;
49193;SDS011;35029;50.804;12.866;2023-09-18T14:46:55;5.97;;;2.55;;
49193;SDS011;35029;50.804;12.866;2023-09-18T14:49:21;3.88;;;1.73;;
49193;SDS011;35029;50.804;12.866;2023-09-18T14:51:49;6.40;;;2.03;;